createdAt,value
2018-04-30T00:00:04.970Z,100179.19
2018-04-30T00:02:33.271Z,100179.12
2018-04-30T00:05:02.314Z,100175.44
2018-04-30T00:07:30.602Z,100164.23
2018-04-30T00:09:59.077Z,100158.03
2018-04-30T00:12:27.793Z,100152.21
2018-04-30T00:14:56.189Z,100153.01
2018-04-30T00:17:25.178Z,100140.95
2018-04-30T00:19:54.191Z,100134.61
2018-04-30T00:22:23.262Z,100125.95
2018-04-30T00:24:52.431Z,100123.94
2018-04-30T00:27:20.702Z,100123.09
2018-04-30T00:29:49.330Z,100113.48
2018-04-30T00:32:17.615Z,100111.76
2018-04-30T00:34:45.913Z,100101.42
2018-04-30T00:37:15.058Z,100097.73
2018-04-30T00:39:44.146Z,100093.56
2018-04-30T00:42:12.639Z,100088.63
2018-04-30T00:44:41.110Z,100080.74
2018-04-30T00:47:09.727Z,100077.42
2018-04-30T00:49:37.995Z,100068.68
2018-04-30T00:52:06.306Z,100059.13
2018-04-30T00:54:53.160Z,100063.70
2018-04-30T00:57:21.539Z,100062.00
2018-04-30T00:59:49.918Z,100053.39
2018-04-30T01:02:18.840Z,100055.89
2018-04-30T01:04:47.614Z,100046.66
2018-04-30T01:07:16.171Z,100048.28
2018-04-30T01:09:46.115Z,100042.50
2018-04-30T01:12:21.623Z,100041.70
2018-04-30T01:14:49.918Z,100034.18
2018-04-30T01:17:18.414Z,100033.33
2018-04-30T01:19:46.718Z,100035.87
2018-04-30T01:22:15.070Z,100026.27
2018-04-30T01:24:43.468Z,100015.03
2018-04-30T01:27:11.755Z,100010.95
2018-04-30T01:29:40.039Z,100007.18
2018-04-30T01:32:09.082Z,99999.28
2018-04-30T01:34:37.498Z,99997.64
2018-04-30T01:37:05.775Z,99997.59
2018-04-30T01:39:34.083Z,99992.20
2018-04-30T01:42:02.431Z,99978.43
2018-04-30T01:44:31.054Z,99980.48
2018-04-30T01:47:00.118Z,99978.83
2018-04-30T01:49:28.771Z,99971.33
2018-04-30T01:51:57.070Z,99961.70
2018-04-30T01:54:25.355Z,99950.94
2018-04-30T01:56:53.628Z,99949.33
2018-04-30T01:59:21.995Z,99929.30
2018-04-30T02:01:50.275Z,99934.71
2018-04-30T02:04:19.451Z,99925.95
2018-04-30T02:06:48.683Z,99917.21
2018-04-30T02:09:17.858Z,99910.89
2018-04-30T02:11:46.144Z,99903.45
2018-04-30T02:14:14.539Z,99890.16
2018-04-30T02:16:42.909Z,99885.08
2018-04-30T02:19:11.211Z,99868.47
2018-04-30T02:21:40.165Z,99855.69
2018-04-30T02:24:08.454Z,99856.08
2018-04-30T02:26:37.614Z,99847.81
2018-04-30T02:29:06.655Z,99827.94
2018-04-30T02:31:34.960Z,99821.70
2018-04-30T02:34:03.518Z,99814.11
2018-04-30T02:36:31.803Z,99807.04
2018-04-30T02:39:00.804Z,99796.25
2018-04-30T02:41:29.872Z,99788.25
2018-04-30T02:43:58.264Z,99792.41
2018-04-30T02:46:26.571Z,99787.48
2018-04-30T02:48:54.876Z,99765.75
2018-04-30T02:51:23.938Z,99763.01
2018-04-30T02:53:52.311Z,99754.14
2018-04-30T02:56:20.608Z,99755.00
2018-04-30T02:58:49.258Z,99753.27
2018-04-30T03:01:17.528Z,99765.41
2018-04-30T03:03:46.023Z,99750.36
2018-04-30T03:06:15.011Z,99746.61
2018-04-30T03:08:43.285Z,99736.73
2018-04-30T03:11:11.585Z,99730.98
2018-04-30T03:13:39.990Z,99714.16
2018-04-30T03:16:09.095Z,99710.97
2018-04-30T03:18:38.290Z,99703.83
2018-04-30T03:21:06.571Z,99696.69
2018-04-30T03:23:34.847Z,99697.70
2018-04-30T03:26:04.607Z,99691.50
2018-04-30T03:28:32.883Z,99689.27
2018-04-30T03:31:01.160Z,99681.55
2018-04-30T03:33:29.561Z,99686.88
2018-04-30T03:35:57.873Z,99675.61
2018-04-30T03:38:26.150Z,99666.16
2018-04-30T03:40:54.447Z,99660.79
2018-04-30T03:43:23.498Z,99659.88
2018-04-30T03:45:51.772Z,99648.53
2018-04-30T03:48:20.074Z,99643.95
2018-04-30T03:50:48.350Z,99629.77
2018-04-30T03:53:16.627Z,99623.32
2018-04-30T03:55:44.967Z,99618.78
2018-04-30T03:58:13.251Z,99621.33
2018-04-30T04:00:59.259Z,99611.67
2018-04-30T04:03:45.406Z,99614.59
2018-04-30T04:09:24.207Z,99604.51
2018-04-30T04:11:52.502Z,99589.43
2018-04-30T04:14:20.786Z,99590.91
2018-04-30T04:16:49.839Z,99584.67
2018-04-30T04:19:18.419Z,99575.52
2018-04-30T04:21:47.924Z,99576.61
2018-04-30T04:24:16.224Z,99577.77
2018-04-30T04:26:44.589Z,99575.78
2018-04-30T04:29:12.878Z,99573.70
2018-04-30T04:31:41.279Z,99561.53
2018-04-30T04:34:10.398Z,99551.92
2018-04-30T04:36:39.752Z,99538.52
2018-04-30T04:39:08.120Z,99521.69
2018-04-30T04:41:36.610Z,99518.61
2018-04-30T04:44:04.824Z,99513.37
2018-04-30T04:46:33.131Z,99515.22
2018-04-30T04:49:01.453Z,99504.87
2018-04-30T04:51:29.726Z,99505.83
2018-04-30T04:53:58.002Z,99489.16
2018-04-30T04:56:26.379Z,99488.63
2018-04-30T04:58:54.659Z,99485.76
2018-04-30T05:01:22.930Z,99478.80
2018-04-30T05:03:51.298Z,99475.05
2018-04-30T05:06:19.926Z,99468.74
2018-04-30T05:08:48.235Z,99465.64
2018-04-30T05:11:17.582Z,99471.85
2018-04-30T05:13:45.955Z,99462.68
2018-04-30T05:16:14.250Z,99459.33
2018-04-30T05:18:42.756Z,99469.41
2018-04-30T05:21:11.178Z,99467.13
2018-04-30T05:23:39.463Z,99473.98
2018-04-30T05:26:07.743Z,99478.80
2018-04-30T05:28:36.227Z,99471.84
2018-04-30T05:31:04.509Z,99469.45
2018-04-30T05:33:32.782Z,99462.68
2018-04-30T05:36:02.178Z,99479.34
2018-04-30T05:38:30.459Z,99489.16
2018-04-30T05:40:58.730Z,99501.56
2018-04-30T05:43:27.127Z,99517.20
2018-04-30T05:45:55.421Z,99541.84
2018-04-30T05:48:24.099Z,99568.78
2018-04-30T05:50:52.398Z,99602.67
2018-04-30T05:53:20.989Z,99593.80
2018-04-30T05:55:50.071Z,99568.34
2018-04-30T05:58:18.438Z,99532.91
2018-04-30T06:00:46.706Z,99539.59
2018-04-30T06:03:15.190Z,99547.94
2018-04-30T06:05:43.478Z,99513.44
2018-04-30T06:08:11.839Z,99502.95
2018-04-30T06:10:40.130Z,99504.89
2018-04-30T06:13:08.411Z,99496.11
2018-04-30T06:15:37.462Z,99490.50
2018-04-30T06:18:06.694Z,99493.44
2018-04-30T06:20:36.463Z,99504.66
2018-04-30T06:23:05.512Z,99492.16
2018-04-30T06:25:33.828Z,99483.24
2018-04-30T06:28:02.115Z,99483.64
2018-04-30T06:30:31.267Z,99466.84
2018-04-30T06:32:59.630Z,99467.59
2018-04-30T06:35:28.460Z,99481.84
2018-04-30T06:37:57.044Z,99483.74
2018-04-30T06:40:26.955Z,99481.17
2018-04-30T06:42:55.231Z,99482.95
2018-04-30T06:45:23.686Z,99483.59
2018-04-30T06:47:52.398Z,99484.17
2018-04-30T06:50:20.710Z,99493.72
2018-04-30T06:52:49.772Z,99484.38
2018-04-30T06:55:18.149Z,99492.77
2018-04-30T06:57:46.549Z,99493.03
2018-04-30T07:00:14.862Z,99486.11
2018-04-30T07:02:43.925Z,99479.22
2018-04-30T07:05:12.213Z,99483.24
2018-04-30T07:07:40.953Z,99482.41
2018-04-30T07:10:09.233Z,99477.56
2018-04-30T07:12:38.344Z,99481.69
2018-04-30T07:15:06.643Z,99469.11
2018-04-30T07:17:34.945Z,99465.70
2018-04-30T07:20:04.295Z,99460.03
2018-04-30T07:22:32.817Z,99450.73
2018-04-30T07:25:01.129Z,99448.32
2018-04-30T07:27:29.497Z,99451.80
2018-04-30T07:29:57.735Z,99465.42
2018-04-30T07:32:26.291Z,99459.70
2018-04-30T07:34:54.563Z,99461.80
2018-04-30T07:37:23.767Z,99451.25
2018-04-30T07:39:52.092Z,99456.92
2018-04-30T07:42:20.381Z,99450.14
2018-04-30T07:44:49.521Z,99453.08
2018-04-30T07:47:17.806Z,99451.72
2018-04-30T07:49:46.099Z,99448.14
2018-04-30T07:52:14.411Z,99456.73
2018-04-30T07:54:43.459Z,99445.37
2018-04-30T07:57:11.753Z,99449.11
2018-04-30T07:59:40.050Z,99445.20
2018-04-30T08:02:08.492Z,99455.89
2018-04-30T08:04:36.870Z,99463.41
2018-04-30T08:07:05.151Z,99456.25
2018-04-30T08:09:33.473Z,99447.20
2018-04-30T08:12:02.521Z,99435.92
2018-04-30T08:14:30.799Z,99430.09
2018-04-30T08:16:59.103Z,99442.04
2018-04-30T08:19:27.480Z,99451.41
2018-04-30T08:21:55.980Z,99452.90
2018-04-30T08:24:24.315Z,99459.03
2018-04-30T08:26:52.587Z,99459.98
2018-04-30T08:29:20.880Z,99460.25
2018-04-30T08:31:49.188Z,99471.20
2018-04-30T08:34:17.458Z,99475.14
2018-04-30T08:36:46.444Z,99477.66
2018-04-30T08:39:14.818Z,99474.28
2018-04-30T08:41:43.178Z,99474.80
2018-04-30T08:44:13.127Z,99478.63
2018-04-30T08:46:41.992Z,99481.15
2018-04-30T08:49:10.354Z,99475.17
2018-04-30T08:51:39.378Z,99473.93
2018-04-30T08:54:07.675Z,99477.20
2018-04-30T08:56:35.954Z,99472.77
2018-04-30T08:59:05.200Z,99470.16
2018-04-30T09:01:33.469Z,99466.96
2018-04-30T09:04:01.965Z,99481.79
2018-04-30T09:06:30.586Z,99480.60
2018-04-30T09:08:58.861Z,99482.87
2018-04-30T09:11:27.943Z,99481.98
2018-04-30T09:13:56.262Z,99479.66
2018-04-30T09:16:24.543Z,99479.52
2018-04-30T09:18:53.590Z,99478.20
2018-04-30T09:21:21.970Z,99473.20
2018-04-30T09:23:51.188Z,99469.58
2018-04-30T09:26:19.460Z,99466.65
2018-04-30T09:28:47.764Z,99473.11
2018-04-30T09:31:16.106Z,99472.05
2018-04-30T09:33:44.457Z,99474.22
2018-04-30T09:36:13.503Z,99469.36
2018-04-30T09:38:41.867Z,99468.23
2018-04-30T09:41:10.372Z,99457.72
2018-04-30T09:43:39.039Z,99464.00
2018-04-30T09:46:07.421Z,99466.45
2018-04-30T09:48:35.709Z,99463.92
2018-04-30T09:51:04.817Z,99463.38
2018-04-30T09:53:33.122Z,99461.84
2018-04-30T09:56:03.427Z,99464.16
2018-04-30T09:58:31.750Z,99468.39
2018-04-30T10:01:00.070Z,99472.18
2018-04-30T10:03:28.346Z,99478.86
2018-04-30T10:05:56.724Z,99474.20
2018-04-30T10:08:25.439Z,99481.38
2018-04-30T10:10:54.998Z,99485.58
2018-04-30T10:13:23.300Z,99482.18
2018-04-30T10:15:52.370Z,99492.58
2018-04-30T10:18:20.655Z,99503.39
2018-04-30T10:20:48.971Z,99499.55
2018-04-30T10:23:17.341Z,99497.41
2018-04-30T10:25:46.569Z,99505.67
2018-04-30T10:28:14.897Z,99504.90
2018-04-30T10:30:43.171Z,99508.27
2018-04-30T10:33:11.452Z,99505.56
2018-04-30T10:35:40.270Z,99517.77
2018-04-30T10:38:08.688Z,99519.67
2018-04-30T10:40:36.956Z,99523.59
2018-04-30T10:43:06.011Z,99527.69
2018-04-30T10:45:34.384Z,99530.42
2018-04-30T10:48:02.678Z,99539.09
2018-04-30T10:50:30.976Z,99542.47
2018-04-30T10:53:00.032Z,99549.83
2018-04-30T10:55:28.539Z,99552.94
2018-04-30T10:57:57.558Z,99575.18
2018-04-30T11:00:27.568Z,99576.52
2018-04-30T11:02:57.246Z,99589.95
2018-04-30T11:05:27.048Z,99598.41
2018-04-30T11:07:55.351Z,99605.95
2018-04-30T11:10:24.189Z,99612.80
2018-04-30T11:12:52.562Z,99636.21
2018-04-30T11:15:21.460Z,99632.13
2018-04-30T11:17:49.739Z,99630.56
2018-04-30T11:20:18.979Z,99641.83
2018-04-30T11:22:47.542Z,99625.92
2018-04-30T11:25:16.849Z,99636.11
2018-04-30T11:27:46.078Z,99625.86
2018-04-30T11:30:14.983Z,99630.42
2018-04-30T11:32:44.052Z,99633.73
2018-04-30T11:35:12.444Z,99641.70
2018-04-30T11:37:40.743Z,99644.42
2018-04-30T11:40:10.531Z,99641.27
2018-04-30T11:42:39.798Z,99636.08
2018-04-30T11:45:08.848Z,99643.52
2018-04-30T11:47:37.931Z,99638.76
2018-04-30T11:50:06.222Z,99632.47
2018-04-30T11:52:36.182Z,99647.08
2018-04-30T11:55:04.873Z,99642.14
2018-04-30T11:57:33.714Z,99649.66
2018-04-30T12:00:03.631Z,99668.00
2018-04-30T12:02:33.502Z,99667.32
2018-04-30T12:05:01.817Z,99670.08
2018-04-30T12:07:30.801Z,99661.55
2018-04-30T12:09:59.167Z,99673.34
2018-04-30T12:12:27.465Z,99684.41
2018-04-30T12:14:55.863Z,99692.93
2018-04-30T12:17:25.751Z,99691.31
2018-04-30T12:19:54.063Z,99704.91
2018-04-30T12:22:23.187Z,99722.77
2018-04-30T12:24:52.900Z,99720.09
2018-04-30T12:27:21.203Z,99712.52
2018-04-30T12:29:49.563Z,99714.11
2018-04-30T12:32:17.842Z,99717.78
2018-04-30T12:34:46.426Z,99712.33
2018-04-30T12:37:15.443Z,99717.66
2018-04-30T12:39:44.261Z,99717.73
2018-04-30T12:42:13.589Z,99729.11
2018-04-30T12:44:42.602Z,99726.84
2018-04-30T12:47:11.835Z,99734.87
2018-04-30T12:49:40.170Z,99739.89
2018-04-30T12:52:09.709Z,99741.07
2018-04-30T12:54:38.006Z,99744.44
2018-04-30T12:57:06.742Z,99761.05
2018-04-30T12:59:35.182Z,99758.69
2018-04-30T13:02:03.472Z,99775.88
2018-04-30T13:04:32.522Z,99775.73
2018-04-30T13:07:01.526Z,99788.94
2018-04-30T13:09:30.398Z,99794.36
2018-04-30T13:11:58.687Z,99786.86
2018-04-30T13:14:27.390Z,99781.53
2018-04-30T13:16:55.683Z,99781.37
2018-04-30T13:19:24.103Z,99780.25
2018-04-30T13:21:52.375Z,99777.81
2018-04-30T13:24:21.427Z,99778.76
2018-04-30T13:26:49.690Z,99779.68
2018-04-30T13:29:18.000Z,99783.84
2018-04-30T13:31:46.538Z,99792.06
2018-04-30T13:34:15.438Z,99795.48
2018-04-30T13:36:43.707Z,99801.34
2018-04-30T13:39:12.091Z,99806.11
2018-04-30T13:41:40.351Z,99800.69
2018-04-30T13:44:08.751Z,99811.55
2018-04-30T13:46:37.023Z,99817.58
2018-04-30T13:49:05.314Z,99815.18
2018-04-30T13:51:33.622Z,99808.88
2018-04-30T13:54:01.906Z,99807.91
2018-04-30T13:56:30.191Z,99816.55
2018-04-30T13:58:59.247Z,99821.62
2018-04-30T14:01:27.636Z,99819.95
2018-04-30T14:03:55.920Z,99817.05
2018-04-30T14:06:24.539Z,99813.52
2018-04-30T14:08:53.695Z,99822.98
2018-04-30T14:11:22.223Z,99816.47
2018-04-30T14:13:51.393Z,99820.36
2018-04-30T14:16:20.502Z,99816.29
2018-04-30T14:18:48.769Z,99817.98
2018-04-30T14:21:17.307Z,99808.30
2018-04-30T14:23:45.582Z,99821.98
2018-04-30T14:26:13.866Z,99821.84
2018-04-30T14:28:42.530Z,99824.94
2018-04-30T14:31:10.821Z,99818.54
2018-04-30T14:33:39.098Z,99817.58
2018-04-30T14:36:07.480Z,99815.48
2018-04-30T14:38:36.507Z,99820.70
2018-04-30T14:41:04.888Z,99817.87
2018-04-30T14:43:33.146Z,99815.19
2018-04-30T14:46:02.746Z,99822.62
2018-04-30T14:48:31.139Z,99823.05
2018-04-30T14:50:59.423Z,99815.75
2018-04-30T14:53:27.687Z,99820.25
2018-04-30T14:55:56.004Z,99806.92
2018-04-30T14:58:29.045Z,99793.58
2018-04-30T15:00:58.329Z,99796.64
2018-04-30T15:03:26.610Z,99798.25
2018-04-30T15:05:54.870Z,99781.57
2018-04-30T15:08:25.123Z,99787.70
2018-04-30T15:10:54.251Z,99778.95
2018-04-30T15:13:23.246Z,99782.77
2018-04-30T15:15:52.867Z,99783.68
2018-04-30T15:18:22.059Z,99781.81
2018-04-30T15:20:50.746Z,99783.12
2018-04-30T15:23:19.657Z,99779.84
2018-04-30T15:25:47.980Z,99784.48
2018-04-30T15:28:16.272Z,99778.40
2018-04-30T15:30:44.550Z,99782.06
2018-04-30T15:33:12.870Z,99762.02
2018-04-30T15:35:41.429Z,99784.84
2018-04-30T15:38:10.299Z,99777.16
2018-04-30T15:40:39.735Z,99782.94
2018-04-30T15:43:08.119Z,99774.08
2018-04-30T15:45:37.017Z,99784.30
2018-04-30T15:48:05.997Z,99788.92
2018-04-30T15:50:34.839Z,99785.67
2018-04-30T15:53:03.111Z,99777.95
2018-04-30T15:55:31.449Z,99770.02
2018-04-30T15:58:00.228Z,99776.92
2018-04-30T16:00:28.434Z,99781.45
2018-04-30T16:02:56.714Z,99784.67
2018-04-30T16:05:25.001Z,99779.65
2018-04-30T16:07:54.163Z,99777.42
2018-04-30T16:10:23.247Z,99763.39
2018-04-30T16:12:51.655Z,99762.23
2018-04-30T16:15:20.845Z,99764.73
2018-04-30T16:17:49.639Z,99776.33
2018-04-30T16:20:18.591Z,99768.12
2018-04-30T16:22:47.028Z,99761.73
2018-04-30T16:25:15.312Z,99767.32
2018-04-30T16:27:45.478Z,99771.84
2018-04-30T16:30:14.027Z,99768.02
2018-04-30T16:32:43.565Z,99775.79
2018-04-30T16:35:11.839Z,99772.11
2018-04-30T16:37:40.103Z,99779.20
2018-04-30T16:40:08.549Z,99775.95
2018-04-30T16:42:37.423Z,99782.78
2018-04-30T16:45:05.710Z,99785.83
2018-04-30T16:47:34.005Z,99777.64
2018-04-30T16:50:03.098Z,99792.19
2018-04-30T16:52:31.555Z,99793.94
2018-04-30T16:54:59.844Z,99789.91
2018-04-30T16:57:28.146Z,99795.10
2018-04-30T16:59:57.584Z,99801.16
2018-04-30T17:02:25.914Z,99802.22
2018-04-30T17:04:54.200Z,99800.34
2018-04-30T17:07:22.735Z,99808.07
2018-04-30T17:09:51.022Z,99809.02
2018-04-30T17:12:19.302Z,99814.06
2018-04-30T17:14:47.670Z,99811.82
2018-04-30T17:17:15.939Z,99817.30
2018-04-30T17:19:44.432Z,99820.08
2018-04-30T17:22:13.311Z,99823.42
2018-04-30T17:24:41.728Z,99822.72
2018-04-30T17:27:09.994Z,99832.55
2018-04-30T17:29:38.288Z,99838.41
2018-04-30T17:32:07.298Z,99830.00
2018-04-30T17:34:35.569Z,99843.06
2018-04-30T17:37:03.923Z,99841.78
2018-04-30T17:39:32.742Z,99847.67
2018-04-30T17:42:01.536Z,99841.89
2018-04-30T17:44:30.101Z,99843.45
2018-04-30T17:46:58.473Z,99842.84
2018-04-30T17:49:26.744Z,99842.94
2018-04-30T17:51:55.124Z,99845.22
2018-04-30T17:54:23.414Z,99846.46
2018-04-30T17:56:51.695Z,99847.96
2018-04-30T17:59:20.023Z,99858.34
2018-04-30T18:01:48.288Z,99861.74
2018-04-30T18:04:17.330Z,99858.00
2018-04-30T18:06:46.022Z,99861.58
2018-04-30T18:09:14.337Z,99857.14
2018-04-30T18:11:42.639Z,99869.05
2018-04-30T18:14:10.954Z,99863.53
2018-04-30T18:16:39.229Z,99875.59
2018-04-30T18:19:07.496Z,99878.33
2018-04-30T18:21:35.797Z,99883.14
2018-04-30T18:24:04.115Z,99887.67
2018-04-30T18:26:33.171Z,99889.45
2018-04-30T18:29:01.499Z,99885.64
2018-04-30T18:31:29.816Z,99892.34
2018-04-30T18:33:58.381Z,99893.80
2018-04-30T18:36:26.657Z,99901.00
2018-04-30T18:38:54.949Z,99905.34
2018-04-30T18:41:23.414Z,99904.50
2018-04-30T18:43:51.754Z,99909.29
2018-04-30T18:46:20.020Z,99910.18
2018-04-30T18:48:48.675Z,99918.02
2018-04-30T18:51:16.955Z,99922.19
2018-04-30T18:53:45.225Z,99918.71
2018-04-30T18:56:13.527Z,99918.16
2018-04-30T18:58:42.670Z,99926.83
2018-04-30T19:01:11.723Z,99923.21
2018-04-30T19:03:40.281Z,99927.75
2018-04-30T19:06:08.611Z,99935.97
2018-04-30T19:08:37.690Z,99932.69
2018-04-30T19:11:05.955Z,99933.37
2018-04-30T19:13:34.272Z,99930.38
2018-04-30T19:16:03.341Z,99936.05
2018-04-30T19:18:32.031Z,99938.83
2018-04-30T19:21:00.963Z,99942.96
2018-04-30T19:23:29.243Z,99939.95
2018-04-30T19:25:57.537Z,99954.00
2018-04-30T19:28:26.086Z,99938.80
2018-04-30T19:30:55.252Z,99950.38
2018-04-30T19:33:23.618Z,99955.94
2018-04-30T19:35:52.730Z,99952.77
2018-04-30T19:38:21.583Z,99954.33
2018-04-30T19:40:49.882Z,99960.81
2018-04-30T19:43:18.178Z,99963.25
2018-04-30T19:45:46.652Z,99960.69
2018-04-30T19:48:14.948Z,99968.16
2018-04-30T19:50:43.537Z,99965.56
2018-04-30T19:53:11.846Z,99968.16
2018-04-30T19:55:40.139Z,99968.34
2018-04-30T19:58:08.412Z,99963.80
2018-04-30T20:00:36.710Z,99968.78
2018-04-30T20:03:05.032Z,99964.78
2018-04-30T20:05:33.318Z,99966.95
2018-04-30T20:08:03.338Z,99969.25
2018-04-30T20:10:32.394Z,99969.39
2018-04-30T20:13:00.975Z,99959.69
2018-04-30T20:15:29.242Z,99959.45
2018-04-30T20:17:57.648Z,99959.97
2018-04-30T20:20:25.995Z,99956.73
2018-04-30T20:22:54.187Z,99952.68
2018-04-30T20:25:22.557Z,99948.28
2018-04-30T20:27:50.848Z,99952.75
2018-04-30T20:30:20.052Z,99949.84
2018-04-30T20:32:48.859Z,99949.53
2018-04-30T20:35:17.166Z,99942.97
2018-04-30T20:37:47.209Z,99937.64
2018-04-30T20:40:15.494Z,99943.98
2018-04-30T20:42:45.210Z,99932.40
2018-04-30T20:45:14.829Z,99937.98
2018-04-30T20:47:43.110Z,99937.73
2018-04-30T20:50:12.294Z,99937.53
2018-04-30T20:52:40.572Z,99941.45
2018-04-30T20:55:10.434Z,99941.13
2018-04-30T20:57:39.338Z,99941.98
2018-04-30T21:00:08.493Z,99941.25
2018-04-30T21:02:38.442Z,99938.37
2018-04-30T21:05:06.719Z,99937.27
2018-04-30T21:07:35.010Z,99932.27
2018-04-30T21:10:04.074Z,99938.95
2018-04-30T21:12:32.771Z,99932.00
2018-04-30T21:15:01.400Z,99929.17
2018-04-30T21:17:29.692Z,99927.75
2018-04-30T21:19:57.950Z,99926.72
2018-04-30T21:22:26.363Z,99923.36
2018-04-30T21:24:55.574Z,99924.02
2018-04-30T21:27:23.851Z,99923.30
2018-04-30T21:29:52.666Z,99923.03
2018-04-30T21:32:20.947Z,99919.91
2018-04-30T21:34:50.199Z,99914.12
2018-04-30T21:37:20.069Z,99922.20
2018-04-30T21:39:49.119Z,99920.55
2018-04-30T21:42:17.611Z,99929.91
2018-04-30T21:44:46.602Z,99929.28
2018-04-30T21:47:15.645Z,99937.48
2018-04-30T21:49:44.704Z,99926.97
2018-04-30T21:52:13.914Z,99933.75
2018-04-30T21:54:44.449Z,99932.08
2018-04-30T21:57:12.728Z,99934.16
2018-04-30T21:59:41.007Z,99931.05
2018-04-30T22:02:09.312Z,99936.97
2018-04-30T22:04:38.353Z,99934.38
2018-04-30T22:07:06.722Z,99922.64
2018-04-30T22:09:35.262Z,99925.48
2018-04-30T22:12:04.370Z,99921.20
2018-04-30T22:14:32.610Z,99930.69
2018-04-30T22:17:01.420Z,99927.64
2018-04-30T22:19:31.593Z,99924.73
2018-04-30T22:22:00.239Z,99922.94
2018-04-30T22:24:29.296Z,99930.02
2018-04-30T22:26:57.667Z,99932.52
2018-04-30T22:29:25.926Z,99927.13
2018-04-30T22:31:54.203Z,99922.20
2018-04-30T22:34:22.715Z,99922.69
2018-04-30T22:36:52.502Z,99920.15
2018-04-30T22:39:20.765Z,99919.32
2018-04-30T22:41:49.059Z,99921.81
2018-04-30T22:44:19.900Z,99926.30
2018-04-30T22:46:48.192Z,99920.47
2018-04-30T22:49:16.561Z,99921.72
2018-04-30T22:51:44.939Z,99915.44
2018-04-30T22:54:14.222Z,99909.23
2018-04-30T22:56:42.509Z,99908.91
2018-04-30T22:59:11.139Z,99907.14
2018-04-30T23:01:39.413Z,99902.22
2018-04-30T23:04:08.516Z,99903.14
2018-04-30T23:06:36.863Z,99895.88
2018-04-30T23:09:06.048Z,99898.45
2018-04-30T23:11:35.269Z,99891.44
2018-04-30T23:14:03.633Z,99891.63
2018-04-30T23:16:32.319Z,99886.94
2018-04-30T23:19:00.606Z,99894.48
2018-04-30T23:21:28.862Z,99887.88
2018-04-30T23:23:57.545Z,99887.94
2018-04-30T23:26:25.802Z,99880.84
2018-04-30T23:28:54.082Z,99877.92
2018-04-30T23:31:25.292Z,99871.77
2018-04-30T23:33:53.963Z,99868.58
2018-04-30T23:36:22.250Z,99863.12
2018-04-30T23:38:50.712Z,99861.50
2018-04-30T23:41:19.002Z,99855.24
2018-04-30T23:43:47.279Z,99858.48
2018-04-30T23:46:16.082Z,99855.56
2018-04-30T23:48:45.107Z,99848.91
2018-04-30T23:51:14.139Z,99845.11
2018-04-30T23:53:43.898Z,99833.72
2018-04-30T23:56:12.183Z,99839.83
2018-04-30T23:58:42.243Z,99841.70
